メインページ
METAR-TAF:

METAR-TAF

空港 :

Caro, ミシガン州, アメリカ合衆国

緯度: 43-27-31N, 経度: 083-26-43W, 海抜: 214m

現時点の気象観測

当レポートは7分前の06:35(UTC)に作成
東/北東の風 3kt
気温 1°C
湿度 86%
気圧 1017 hPa
視程: 16.1km
晴天

METAR: KCFS 040635Z AUTO 07003KT 10SM CLR 01/M01 A3004 RMK AO2 T00071010

時間: 02:42 (06:42 UTC)


TAF: 見つかりません

4,000以上の空港の気象観測と天気予報(METAR報とTAF報)

利用可能な観測所は地図上に黄色い丸と赤い丸で示す。

丸の上にカーソルを重ねると観測所名を参照できる。

次にクリックすると気象観測と天気予報を参照できる。

マップの切り替え:黒色「×」印の緑ボタンをクリックして拡大、「-」印の緑ボタンをクリックして縮小、緑色の三角印をクリックして隣りの地図に切り替え


METAR-TAF: